Paradise Valley, Pennsylvania
Current Conditions -  °F | °C
As of 7:46 AM on Thursday 23 Oct 2014 (Local Time) from KMPO Reporting Station
Light Rain Light Rain  
Wind Chill: 35°   Ceiling: 800
Heat Index: 43°   Visibility: 8mi
Dew Point: 40°   Wind: 18mph
Humidity: 89%   Direction: 340°NNW
Pressure: 29.79"   Gusts: 28mph
Location:  41.1664°N, 75.2521°W
Report Text: KMPO 231146Z AUTO 34016G24KT 8SM -RA OVC008 06/04 A2979 RMK AO2 PK WND 33026/1128 CIG 005V010 T00610044 TSNO PNO $
Loading
Personal Weather Stations






























Interactive Weather Map
Tropical Storm Tracking
New forecast layout! Learn more

10-Day Weather Forecast

Advertisements
Track Severe Weather on mobile